Time;durP1;ratioP1;P1;durP2;ratioP2;P2;SDS_P1;SDS_P2;PMS_P1;PMS_P2;Temp;Humidity;BMP_temperature;BMP_pressure;BME280_temperature;BME280_humidity;BME280_pressure;Samples;Min_cycle;Max_cycle;Signal;HPM_P1;HPM_P2
2022/04/19 00:00:47;;;;;;;8.18;2.88;;;11.10;99.90;;;;;;4973572;28;20051;-63
2022/04/19 00:03:14;;;;;;;6.65;3.03;;;11.00;99.90;;;;;;4974229;28;20549;-67
2022/04/19 00:05:41;;;;;;;4.35;2.22;;;11.00;99.90;;;;;;4973727;28;20061;-66
2022/04/19 00:08:09;;;;;;;4.95;2.72;;;10.90;99.90;;;;;;4974356;28;20027;-66
2022/04/19 00:10:35;;;;;;;8.45;2.70;;;10.90;99.90;;;;;;4971959;28;20082;-66
2022/04/19 00:13:02;;;;;;;6.00;2.90;;;10.80;99.90;;;;;;4974491;28;20562;-65
2022/04/19 00:15:30;;;;;;;5.07;2.72;;;10.80;99.90;;;;;;4973465;28;20467;-68
2022/04/19 00:17:56;;;;;;;6.10;3.20;;;10.70;99.90;;;;;;4975492;28;20023;-67
2022/04/19 00:20:23;;;;;;;5.80;3.08;;;10.70;99.90;;;;;;4974464;28;20087;-69
2022/04/19 00:22:51;;;;;;;4.90;2.75;;;10.70;99.90;;;;;;4974300;28;20023;-66
2022/04/19 00:25:18;;;;;;;5.03;2.83;;;10.70;99.90;;;;;;4973065;28;20498;-66
2022/04/19 00:27:43;;;;;;;5.50;2.90;;;10.70;99.90;;;;;;4975063;28;20085;-66
2022/04/19 00:30:10;;;;;;;4.80;2.80;;;10.70;99.90;;;;;;4974534;28;20038;-64
2022/04/19 00:32:36;;;;;;;13.55;3.08;;;10.60;99.90;;;;;;4974550;28;20119;-67
2022/04/19 00:35:03;;;;;;;4.60;2.53;;;10.60;99.90;;;;;;4974109;28;20113;-67
2022/04/19 00:37:29;;;;;;;5.22;2.90;;;10.50;99.90;;;;;;4974938;28;20096;-68
2022/04/19 00:39:58;;;;;;;4.72;2.63;;;10.50;99.90;;;;;;4973106;28;20055;-66
2022/04/19 00:42:27;;;;;;;8.65;2.80;;;10.40;99.90;;;;;;4971353;28;20046;-66
2022/04/19 00:44:54;;;;;;;7.40;3.08;;;10.40;99.90;;;;;;4974671;28;20475;-70
2022/04/19 00:47:20;;;;;;;8.45;3.38;;;10.40;99.90;;;;;;4973962;28;20509;-67
2022/04/19 00:49:47;;;;;;;6.57;2.97;;;10.40;99.90;;;;;;4974654;28;20031;-66
2022/04/19 00:52:13;;;;;;;4.68;2.70;;;10.40;99.90;;;;;;4974076;28;20423;-67
2022/04/19 00:54:40;;;;;;;4.53;2.60;;;10.40;99.90;;;;;;4974187;28;20046;-66
2022/04/19 00:57:06;;;;;;;7.50;3.22;;;10.30;99.90;;;;;;4972659;28;20042;-66
2022/04/19 00:59:33;;;;;;;6.20;3.05;;;10.30;99.90;;;;;;4973337;28;20506;-66
2022/04/19 01:01:59;;;;;;;5.07;2.72;;;10.30;99.90;;;;;;4972201;28;20039;-67
2022/04/19 01:04:25;;;;;;;3.78;2.40;;;10.20;99.90;;;;;;4973637;28;20078;-66
2022/04/19 01:06:52;;;;;;;6.00;3.05;;;10.20;99.90;;;;;;4973805;28;20043;-67
2022/04/19 01:09:19;;;;;;;8.30;3.88;;;10.20;99.90;;;;;;4973553;28;20038;-67
2022/04/19 01:14:29;;;;;;;6.15;2.85;;;10.10;99.90;;;;;;4968641;28;20046;-67
2022/04/19 01:16:55;;;;;;;4.55;2.58;;;10.00;99.90;;;;;;4974090;28;20026;-66
2022/04/19 01:19:21;;;;;;;7.28;3.55;;;10.00;99.90;;;;;;4972275;28;20055;-65
2022/04/19 01:21:54;;;;;;;5.50;3.00;;;10.00;99.90;;;;;;4974359;28;20053;-63
2022/04/19 01:24:21;;;;;;;6.20;2.88;;;10.00;99.90;;;;;;4966596;28;20042;-65
2022/04/19 01:26:48;;;;;;;5.68;3.17;;;10.10;99.90;;;;;;4974007;28;20035;-65
2022/04/19 01:29:15;;;;;;;6.10;3.00;;;10.00;99.90;;;;;;4965033;28;20038;-65
2022/04/19 01:31:42;;;;;;;3.92;2.47;;;10.00;99.90;;;;;;4971739;28;20157;-68
2022/04/19 01:34:08;;;;;;;5.70;2.80;;;10.00;99.90;;;;;;4972568;28;20114;-66
2022/04/19 01:36:35;;;;;;;4.68;2.60;;;10.00;99.90;;;;;;4973541;28;20364;-66
2022/04/19 01:39:06;;;;;;;7.45;3.10;;;10.00;99.90;;;;;;4971914;28;20030;-67
2022/04/19 01:41:32;;;;;;;6.43;2.97;;;10.00;99.90;;;;;;4973128;28;20138;-66
2022/04/19 01:43:59;;;;;;;6.32;3.13;;;9.90;99.90;;;;;;4972030;28;20050;-66
2022/04/19 01:46:26;;;;;;;5.82;3.13;;;9.90;99.90;;;;;;4991978;22;20042;-72
2022/04/19 01:48:54;;;;;;;4.60;2.55;;;9.90;99.90;;;;;;4981088;28;20407;-69
2022/04/19 01:51:20;;;;;;;4.28;2.75;;;9.80;99.90;;;;;;4982362;28;20044;-72
2022/04/19 01:53:46;;;;;;;5.15;2.72;;;9.80;99.90;;;;;;5008410;28;20045;-72
2022/04/19 01:56:11;;;;;;;5.05;2.67;;;9.70;99.90;;;;;;4982863;28;20026;-72
2022/04/19 01:58:38;;;;;;;8.18;2.90;;;9.70;99.90;;;;;;4979667;28;20041;-72
2022/04/19 02:01:03;;;;;;;5.97;3.53;;;9.60;99.90;;;;;;4982008;28;20038;-72
2022/04/19 02:03:29;;;;;;;4.85;2.88;;;9.60;99.90;;;;;;4980125;28;20141;-72
2022/04/19 02:05:54;;;;;;;6.72;3.10;;;9.50;99.90;;;;;;4980527;28;20082;-72
2022/04/19 02:08:20;;;;;;;7.05;3.08;;;9.50;99.90;;;;;;4982389;28;20614;-69
2022/04/19 02:10:46;;;;;;;6.13;3.00;;;9.50;99.90;;;;;;4979778;28;20047;-72
2022/04/19 02:13:13;;;;;;;5.85;2.83;;;9.40;99.90;;;;;;4982214;28;20030;-71
2022/04/19 02:15:39;;;;;;;11.73;3.88;;;9.40;99.90;;;;;;4980019;28;20026;-72
2022/04/19 02:18:05;;;;;;;5.30;2.80;;;9.40;99.90;;;;;;4980533;28;20479;-71
2022/04/19 02:20:31;;;;;;;6.95;2.97;;;9.40;99.90;;;;;;4981057;28;20562;-71
2022/04/19 02:22:57;;;;;;;6.53;3.10;;;9.40;99.90;;;;;;4981193;28;20118;-71
2022/04/19 02:25:26;;;;;;;6.85;3.33;;;9.30;99.90;;;;;;4979994;28;20066;-71
2022/04/19 02:27:52;;;;;;;7.97;3.10;;;9.30;99.90;;;;;;4980874;28;20035;-71
2022/04/19 02:30:18;;;;;;;6.80;3.15;;;9.30;99.90;;;;;;4981556;28;20049;-71
2022/04/19 02:32:45;;;;;;;6.15;3.20;;;9.30;99.90;;;;;;4977823;28;20038;-71
2022/04/19 02:35:13;;;;;;;7.82;3.55;;;9.30;99.90;;;;;;4980997;28;20402;-71
2022/04/19 02:37:47;;;;;;;6.80;2.88;;;9.30;99.90;;;;;;4979478;28;20035;-72
2022/04/19 02:40:13;;;;;;;5.80;3.55;;;9.30;99.90;;;;;;4982708;28;20065;-72
2022/04/19 02:42:38;;;;;;;5.38;3.05;;;9.20;99.90;;;;;;4979385;28;20656;-72
2022/04/19 02:45:05;;;;;;;6.60;2.85;;;9.20;99.90;;;;;;4979228;28;20081;-71
2022/04/19 02:47:31;;;;;;;6.65;3.20;;;9.20;99.90;;;;;;4980394;28;20502;-71
2022/04/19 02:49:57;;;;;;;5.55;3.08;;;9.10;99.90;;;;;;4979654;28;20039;-71
2022/04/19 02:52:22;;;;;;;7.20;3.20;;;9.10;99.90;;;;;;4980605;28;20505;-69
2022/04/19 02:54:48;;;;;;;7.03;3.15;;;9.10;99.90;;;;;;4979425;28;20065;-71
2022/04/19 02:57:13;;;;;;;11.32;3.60;;;9.00;99.90;;;;;;4982197;28;20030;-72
2022/04/19 02:59:42;;;;;;;6.07;3.03;;;9.00;99.90;;;;;;4977863;28;20035;-72
2022/04/19 03:02:08;;;;;;;4.53;2.67;;;9.00;99.90;;;;;;4981220;28;20402;-71
2022/04/19 03:04:33;;;;;;;6.32;3.33;;;9.00;99.90;;;;;;4977990;28;20047;-72
2022/04/19 03:06:59;;;;;;;5.15;3.10;;;9.00;99.90;;;;;;4979283;28;20034;-73
2022/04/19 03:09:25;;;;;;;5.75;3.03;;;9.00;99.90;;;;;;4980678;28;20169;-71
2022/04/19 03:11:50;;;;;;;5.20;2.88;;;9.00;99.90;;;;;;4979134;28;20031;-72
2022/04/19 03:14:16;;;;;;;5.32;3.10;;;9.00;99.90;;;;;;4980458;28;20058;-72
2022/04/19 03:16:42;;;;;;;5.93;2.58;;;8.90;99.90;;;;;;4977394;28;20027;-72
2022/04/19 03:19:08;;;;;;;8.65;3.25;;;8.90;99.90;;;;;;4981964;28;20038;-70
2022/04/19 03:21:33;;;;;;;5.60;3.00;;;8.80;99.90;;;;;;4981090;28;20035;-72
2022/04/19 03:29:27;;;;;;;7.15;3.53;;;8.70;99.90;;;;;;4978921;28;20496;-71
2022/04/19 03:31:54;;;;;;;7.50;3.03;;;8.60;99.90;;;;;;4978586;28;20030;-72
2022/04/19 03:34:20;;;;;;;6.72;3.55;;;8.60;99.90;;;;;;4980198;28;20118;-72
2022/04/19 03:36:46;;;;;;;6.85;3.60;;;8.50;99.90;;;;;;4978667;28;20110;-72
2022/04/19 03:39:11;;;;;;;6.38;3.05;;;8.50;99.90;;;;;;4981552;28;20037;-72
2022/04/19 03:41:37;;;;;;;6.40;3.60;;;8.40;99.90;;;;;;4977311;28;20057;-72
2022/04/19 03:44:02;;;;;;;8.63;3.35;;;8.40;99.90;;;;;;4981304;28;20494;-72
2022/04/19 03:46:28;;;;;;;5.18;2.80;;;8.30;99.90;;;;;;4977525;28;20552;-70
2022/04/19 03:48:54;;;;;;;6.90;3.30;;;8.30;99.90;;;;;;4978926;28;20750;-72
2022/04/19 03:51:19;;;;;;;8.68;3.17;;;8.30;99.90;;;;;;4980183;28;20513;-72
2022/04/19 03:53:46;;;;;;;6.75;3.22;;;8.20;99.90;;;;;;4977572;28;20043;-72
2022/04/19 03:56:12;;;;;;;5.05;3.30;;;8.20;99.90;;;;;;4981224;28;20038;-72
2022/04/19 03:58:37;;;;;;;5.47;3.20;;;8.20;99.90;;;;;;4978358;28;20035;-72
2022/04/19 04:01:03;;;;;;;6.90;3.60;;;8.10;99.90;;;;;;4979585;28;20054;-72
2022/04/19 04:03:29;;;;;;;6.47;3.22;;;8.10;99.90;;;;;;4979023;28;20030;-72
2022/04/19 04:05:57;;;;;;;5.70;3.03;;;8.10;99.90;;;;;;4980533;28;20105;-72
2022/04/19 04:08:23;;;;;;;9.20;3.63;;;8.10;99.90;;;;;;4978082;28;20030;-72
2022/04/19 04:10:49;;;;;;;5.82;2.95;;;8.00;99.90;;;;;;4979509;28;20034;-71
2022/04/19 04:13:14;;;;;;;6.97;3.40;;;8.00;99.90;;;;;;4978920;28;20097;-72
2022/04/19 04:15:40;;;;;;;5.80;3.30;;;8.00;99.90;;;;;;4978295;28;20031;-72
2022/04/19 04:18:06;;;;;;;8.13;3.42;;;7.90;99.90;;;;;;4981354;28;20023;-72
2022/04/19 04:20:31;;;;;;;8.40;3.58;;;7.90;99.90;;;;;;4978658;28;20450;-72
2022/04/19 04:22:57;;;;;;;8.50;3.83;;;7.90;99.90;;;;;;4980447;28;20027;-72
2022/04/19 04:25:22;;;;;;;6.22;3.30;;;7.90;99.90;;;;;;4979108;28;20140;-71
2022/04/19 04:27:48;;;;;;;7.15;3.75;;;7.80;99.90;;;;;;4978231;28;20042;-72
2022/04/19 04:30:14;;;;;;;7.65;3.40;;;7.80;99.90;;;;;;4978768;28;20050;-73
2022/04/19 04:32:39;;;;;;;8.40;3.33;;;7.80;99.90;;;;;;4979469;28;20048;-73
2022/04/19 04:35:06;;;;;;;5.82;3.20;;;7.80;99.90;;;;;;4978221;28;20042;-71
2022/04/19 04:37:31;;;;;;;8.02;3.45;;;7.80;99.90;;;;;;4979856;28;20569;-72
2022/04/19 04:39:57;;;;;;;8.60;3.70;;;7.80;99.90;;;;;;4980005;28;20043;-72
2022/04/19 04:42:22;;;;;;;7.68;3.40;;;7.80;99.90;;;;;;4988349;28;20073;-69
2022/04/19 04:44:48;;;;;;;6.22;3.33;;;7.80;99.90;;;;;;4981444;28;20042;-71
2022/04/19 04:49:58;;;;;;;5.78;3.20;;;7.80;99.90;;;;;;4982189;28;20049;-71
2022/04/19 04:52:24;;;;;;;6.88;3.83;;;7.80;99.90;;;;;;4983247;28;20613;-69
2022/04/19 04:54:49;;;;;;;7.75;3.45;;;7.90;99.90;;;;;;4980088;28;20066;-73
2022/04/19 04:57:15;;;;;;;5.55;2.97;;;7.90;99.90;;;;;;4982933;28;20073;-71
2022/04/19 04:59:40;;;;;;;9.70;3.78;;;7.90;99.90;;;;;;4981525;28;20100;-71
2022/04/19 05:02:06;;;;;;;7.60;3.53;;;7.90;99.90;;;;;;4985515;28;20113;-71
2022/04/19 05:04:32;;;;;;;9.52;3.88;;;7.90;99.90;;;;;;4985691;28;20494;-71
2022/04/19 05:06:58;;;;;;;8.55;3.60;;;8.00;99.90;;;;;;4987430;28;20167;-72
2022/04/19 05:09:24;;;;;;;7.30;3.67;;;8.00;99.90;;;;;;4988316;28;20766;-71
2022/04/19 05:11:55;;;;;;;6.90;3.35;;;8.10;99.90;;;;;;4991060;28;20026;-72
2022/04/19 05:14:22;;;;;;;5.80;3.47;;;8.10;99.90;;;;;;4991742;28;20521;-72
2022/04/19 05:16:47;;;;;;;9.13;3.70;;;8.10;99.90;;;;;;4994108;28;20030;-69
2022/04/19 05:19:13;;;;;;;10.15;3.88;;;8.20;99.90;;;;;;4991656;28;20062;-73
2022/04/19 05:21:39;;;;;;;7.95;3.67;;;8.30;99.90;;;;;;4990783;28;20038;-72
2022/04/19 05:24:06;;;;;;;11.07;3.55;;;8.30;99.90;;;;;;4990819;28;20409;-73
2022/04/19 05:26:32;;;;;;;9.35;4.00;;;8.50;99.90;;;;;;4987968;28;20038;-73
2022/04/19 05:28:57;;;;;;;10.82;3.72;;;8.60;99.90;;;;;;4990837;28;20708;-72
2022/04/19 05:31:23;;;;;;;8.27;3.70;;;8.70;99.90;;;;;;4993007;28;20023;-72
2022/04/19 05:33:49;;;;;;;7.53;3.42;;;8.80;99.90;;;;;;4993068;28;20038;-73
2022/04/19 05:36:15;;;;;;;12.23;4.30;;;8.90;99.90;;;;;;4991560;28;20113;-71
2022/04/19 05:38:41;;;;;;;9.07;3.60;;;9.00;99.90;;;;;;4989428;28;20101;-72
2022/04/19 05:41:06;;;;;;;14.60;3.92;;;9.20;99.90;;;;;;4988101;28;20027;-73
2022/04/19 05:43:32;;;;;;;11.32;4.10;;;9.30;99.90;;;;;;4990067;28;20061;-73
2022/04/19 05:45:58;;;;;;;9.85;3.90;;;9.40;99.90;;;;;;4993215;28;20038;-73
2022/04/19 05:48:25;;;;;;;11.82;3.70;;;9.60;99.90;;;;;;4991296;28;20128;-73
2022/04/19 05:50:50;;;;;;;10.00;3.67;;;9.90;99.90;;;;;;4989967;28;20026;-73
2022/04/19 05:53:16;;;;;;;9.95;3.65;;;10.70;99.90;;;;;;4991851;28;20038;-72
2022/04/19 05:55:41;;;;;;;4.95;3.15;;;11.80;99.90;;;;;;4989459;28;20054;-72
2022/04/19 05:58:07;;;;;;;7.25;3.60;;;12.70;99.90;;;;;;4992235;28;20077;-71
2022/04/19 06:00:33;;;;;;;10.05;3.45;;;13.70;99.90;;;;;;4989246;28;20032;-72
2022/04/19 06:05:42;;;;;;;7.95;2.95;;;15.60;96.20;;;;;;4990059;28;20042;-72
2022/04/19 06:08:08;;;;;;;6.35;3.40;;;16.20;93.10;;;;;;4991817;28;20034;-74
2022/04/19 06:10:34;;;;;;;9.93;3.67;;;16.50;90.50;;;;;;4989046;28;20473;-73
2022/04/19 06:12:59;;;;;;;6.32;3.40;;;16.60;88.60;;;;;;4992329;28;20030;-72
2022/04/19 06:15:25;;;;;;;9.68;3.47;;;17.00;88.90;;;;;;4990088;28;20418;-73
2022/04/19 06:17:50;;;;;;;10.77;4.38;;;17.40;86.00;;;;;;4992040;28;20096;-73
2022/04/19 06:20:16;;;;;;;8.35;3.78;;;18.00;84.60;;;;;;4990286;28;20042;-73
2022/04/19 06:22:44;;;;;;;9.98;3.75;;;18.70;77.30;;;;;;4990763;28;20556;-73
2022/04/19 06:25:10;;;;;;;7.95;3.58;;;19.00;75.70;;;;;;4988654;28;20132;-72
2022/04/19 06:27:35;;;;;;;5.68;3.50;;;19.60;72.40;;;;;;4991832;28;20134;-75
2022/04/19 06:30:02;;;;;;;6.75;3.95;;;19.80;71.20;;;;;;4987098;28;20049;-73
2022/04/19 06:32:27;;;;;;;13.52;4.25;;;20.00;70.50;;;;;;4986686;28;20034;-74
2022/04/19 06:34:53;;;;;;;6.03;3.80;;;20.50;65.00;;;;;;4990616;28;20562;-74
2022/04/19 06:37:20;;;;;;;6.03;3.60;;;20.60;64.50;;;;;;4991441;28;20042;-73
2022/04/19 06:39:46;;;;;;;7.82;3.92;;;20.90;63.40;;;;;;4991062;28;20038;-72
2022/04/19 06:42:11;;;;;;;9.75;3.67;;;20.90;58.70;;;;;;4989032;28;20042;-73
2022/04/19 06:44:37;;;;;;;12.10;3.67;;;21.10;59.70;;;;;;4989622;28;20580;-72
2022/04/19 06:47:03;;;;;;;10.13;4.30;;;21.10;59.80;;;;;;4988620;28;20042;-74
2022/04/19 06:49:28;;;;;;;5.75;3.50;;;21.60;58.20;;;;;;4989136;28;20066;-73
2022/04/19 06:51:54;;;;;;;8.93;3.78;;;21.80;56.80;;;;;;4990935;28;20128;-74
2022/04/19 06:54:20;;;;;;;8.70;3.22;;;21.70;57.60;;;;;;4991009;28;20042;-72
2022/04/19 06:56:46;;;;;;;9.95;4.03;;;22.10;54.70;;;;;;4989226;28;20037;-73
2022/04/19 06:59:12;;;;;;;10.82;3.72;;;21.70;56.80;;;;;;4987537;28;20034;-73
2022/04/19 07:01:40;;;;;;;5.32;3.05;;;21.70;57.10;;;;;;4989366;28;20038;-73
2022/04/19 07:04:10;;;;;;;7.82;3.80;;;21.60;57.00;;;;;;4989599;28;20041;-74
2022/04/19 07:06:36;;;;;;;13.63;3.42;;;21.90;53.90;;;;;;4988749;28;20592;-74
2022/04/19 07:09:03;;;;;;;4.93;3.20;;;21.50;54.80;;;;;;4990464;28;20046;-73
2022/04/19 07:11:28;;;;;;;5.57;3.17;;;21.20;54.70;;;;;;4989077;28;20030;-74
2022/04/19 07:13:54;;;;;;;5.90;3.13;;;21.10;55.70;;;;;;4991291;28;20046;-74
2022/04/19 07:16:20;;;;;;;8.35;3.38;;;21.10;54.40;;;;;;4989748;28;20046;-74
2022/04/19 07:18:46;;;;;;;4.63;2.78;;;20.80;54.30;;;;;;4991309;28;20116;-74
2022/04/19 07:26:47;;;;;;;5.13;3.28;;;19.90;57.80;;;;;;4987919;28;20104;-73
2022/04/19 07:29:15;;;;;;;6.35;2.88;;;19.70;57.10;;;;;;4989343;28;20121;-74
2022/04/19 07:31:42;;;;;;;4.53;2.53;;;19.30;56.60;;;;;;4985954;28;20785;-73
2022/04/19 07:34:08;;;;;;;7.18;2.80;;;19.20;56.90;;;;;;4989899;28;20568;-73
2022/04/19 07:36:35;;;;;;;6.50;2.53;;;19.00;56.50;;;;;;4989253;28;20026;-73
2022/04/19 07:39:03;;;;;;;5.35;2.80;;;18.60;58.40;;;;;;4990450;28;20034;-73
2022/04/19 07:41:30;;;;;;;5.30;2.65;;;18.40;58.90;;;;;;4987842;28;20030;-73
2022/04/19 07:43:55;;;;;;;8.18;3.38;;;18.50;58.60;;;;;;4988449;28;20035;-73
2022/04/19 07:46:21;;;;;;;5.47;1.92;;;18.50;59.00;;;;;;5006951;23;20939;-60
2022/04/19 07:48:48;;;;;;;5.65;2.38;;;18.60;58.50;;;;;;5002848;28;20046;-61
2022/04/19 07:51:15;;;;;;;5.22;2.38;;;18.60;58.20;;;;;;4990343;28;20038;-61
2022/04/19 07:53:40;;;;;;;3.90;1.55;;;18.60;59.00;;;;;;4987444;28;20510;-61
2022/04/19 07:56:06;;;;;;;5.13;1.90;;;18.60;58.30;;;;;;4990674;28;20122;-62
2022/04/19 07:58:32;;;;;;;4.15;1.95;;;18.70;58.60;;;;;;4995096;28;20402;-63
2022/04/19 08:00:59;;;;;;;4.07;2.03;;;18.70;58.40;;;;;;4989727;28;20038;-64
2022/04/19 08:03:25;;;;;;;4.45;1.90;;;18.60;57.90;;;;;;4989801;28;20030;-61
2022/04/19 08:05:51;;;;;;;5.32;2.05;;;18.50;58.70;;;;;;4994657;28;20052;-62
2022/04/19 08:08:18;;;;;;;3.17;1.42;;;18.60;58.80;;;;;;4992175;28;20049;-62
2022/04/19 08:10:44;;;;;;;5.57;2.10;;;18.70;59.10;;;;;;4990686;28;20038;-61
2022/04/19 08:13:10;;;;;;;5.43;2.28;;;18.90;58.40;;;;;;4992082;28;20050;-61
2022/04/19 08:15:36;;;;;;;3.75;1.55;;;19.00;58.40;;;;;;4995500;28;20039;-62
2022/04/19 08:18:02;;;;;;;2.67;1.65;;;19.10;58.60;;;;;;4991563;28;20097;-63
2022/04/19 08:20:27;;;;;;;3.85;1.58;;;19.30;58.70;;;;;;4995271;28;20052;-62
2022/04/19 08:22:53;;;;;;;4.25;1.60;;;19.30;58.10;;;;;;4997038;28;20033;-63
2022/04/19 08:25:18;;;;;;;4.07;1.50;;;19.30;56.40;;;;;;4993552;28;20081;-60
2022/04/19 08:27:47;;;;;;;3.38;1.35;;;19.30;56.80;;;;;;4991563;28;20154;-62
2022/04/19 08:30:18;;;;;;;3.25;1.23;;;19.30;57.00;;;;;;4994218;28;20089;-62
2022/04/19 08:32:44;;;;;;;4.55;1.75;;;19.30;58.40;;;;;;4990105;28;20048;-62
2022/04/19 08:35:09;;;;;;;5.00;1.80;;;19.20;57.80;;;;;;4990732;28;20069;-63
2022/04/19 08:37:35;;;;;;;7.07;2.13;;;19.30;56.30;;;;;;4995529;28;20469;-62
2022/04/19 08:40:06;;;;;;;6.60;2.03;;;19.20;57.40;;;;;;4995575;28;20039;-61
2022/04/19 08:42:32;;;;;;;3.40;1.75;;;19.20;58.90;;;;;;4987701;28;20097;-62
2022/04/19 08:45:03;;;;;;;4.30;1.88;;;19.30;55.60;;;;;;4992794;28;20061;-61
2022/04/19 08:47:33;;;;;;;7.18;1.92;;;19.30;57.30;;;;;;4996456;28;20498;-62
2022/04/19 08:50:06;;;;;;;5.90;2.15;;;19.20;56.20;;;;;;4994087;28;20039;-61
2022/04/19 08:52:33;;;;;;;6.78;2.30;;;19.30;54.90;;;;;;4989893;28;20528;-60
2022/04/19 08:57:45;;;;;;;5.00;2.20;;;19.40;55.00;;;;;;4997227;28;20192;-63
2022/04/19 09:00:12;;;;;;;5.45;1.70;;;19.50;54.60;;;;;;4990159;28;20049;-62
2022/04/19 09:02:38;;;;;;;4.00;1.63;;;19.60;54.30;;;;;;4989973;28;20121;-63
2022/04/19 09:05:18;;;;;;;12.57;2.83;;;19.60;54.30;;;;;;4994556;28;20050;-61
2022/04/19 09:07:45;;;;;;;4.82;2.17;;;19.70;54.00;;;;;;4996193;28;20058;-62
2022/04/19 09:10:16;;;;;;;4.90;2.38;;;19.80;53.90;;;;;;4989871;28;20550;-61
2022/04/19 09:12:57;;;;;;;5.53;2.25;;;19.80;56.20;;;;;;4991908;28;21287;-61
2022/04/19 09:15:22;;;;;;;;;;;19.90;54.20;;;;;;4992386;28;20041;-61
2022/04/19 09:17:48;;;;;;;6.13;2.35;;;20.00;54.20;;;;;;4989077;28;19918;-61
2022/04/19 09:20:19;;;;;;;6.78;2.45;;;20.00;53.40;;;;;;4989954;28;20453;-64
2022/04/19 09:22:48;;;;;;;7.68;2.20;;;20.10;52.80;;;;;;4991791;28;20030;-62
2022/04/19 09:25:14;;;;;;;5.28;2.25;;;20.00;52.90;;;;;;4994962;28;20051;-61
2022/04/19 09:27:40;;;;;;;5.78;2.28;;;19.90;52.80;;;;;;4993850;28;20517;-62
2022/04/19 09:30:30;;;;;;;5.72;2.38;;;19.80;53.10;;;;;;4992710;28;20034;-63
2022/04/19 09:33:06;;;;;;;6.03;2.50;;;19.70;54.70;;;;;;4988472;28;20414;-61
2022/04/19 09:35:45;;;;;;;7.35;2.53;;;19.80;54.40;;;;;;4993406;28;20070;-60
2022/04/19 09:38:12;;;;;;;4.97;2.47;;;19.80;53.50;;;;;;4992956;28;20049;-61
2022/04/19 09:40:46;;;;;;;4.85;1.85;;;19.80;53.60;;;;;;4988980;28;20041;-62
2022/04/19 09:43:21;;;;;;;5.70;2.42;;;19.70;52.70;;;;;;4995874;28;20042;-60
2022/04/19 09:45:54;;;;;;;5.43;2.20;;;19.70;53.40;;;;;;4991642;28;20045;-61
2022/04/19 09:48:47;;;;;;;6.22;2.70;;;19.80;53.10;;;;;;4985465;28;20038;-59
2022/04/19 09:51:13;;;;;;;4.97;2.00;;;19.90;51.50;;;;;;4983909;28;20051;-60
2022/04/19 09:53:44;;;;;;;6.10;2.30;;;19.90;51.50;;;;;;4995601;28;20046;-61
2022/04/19 09:56:14;;;;;;;6.65;2.55;;;19.90;51.90;;;;;;4991264;28;20049;-61
2022/04/19 09:58:44;;;;;;;5.07;2.10;;;19.90;51.50;;;;;;4992929;28;20042;-62
2022/04/19 10:08:10;;;;;;;4.65;1.67;;;19.90;51.60;;;;;;4988116;28;20097;-62
2022/04/19 10:09:36;;;;;;;5.53;2.33;;;19.80;51.20;;;;;;4992226;28;20030;-61
2022/04/19 10:12:04;;;;;;;5.20;2.00;;;19.80;52.20;;;;;;4991021;28;20060;-62
2022/04/19 10:14:31;;;;;;;4.32;2.00;;;19.90;51.50;;;;;;4992177;28;20121;-63
2022/04/19 10:16:58;;;;;;;12.55;2.20;;;19.80;51.60;;;;;;4995531;28;20034;-61
2022/04/19 10:19:24;;;;;;;3.70;1.63;;;19.80;53.00;;;;;;4991581;28;20037;-64
2022/04/19 10:21:51;;;;;;;4.32;1.67;;;19.80;50.50;;;;;;4991016;28;20080;-60
2022/04/19 10:24:17;;;;;;;5.18;1.70;;;19.80;50.60;;;;;;4993014;28;20046;-61
2022/04/19 10:26:47;;;;;;;5.72;2.20;;;19.90;50.40;;;;;;4991272;28;20030;-62
2022/04/19 10:29:30;;;;;;;4.00;2.08;;;20.10;50.40;;;;;;4989997;28;20039;-61
2022/04/19 10:32:01;;;;;;;5.03;1.70;;;20.00;50.40;;;;;;4988997;28;20057;-62
2022/04/19 10:34:29;;;;;;;3.95;1.58;;;19.90;50.90;;;;;;4992055;28;20034;-62
2022/04/19 10:37:01;;;;;;;7.82;2.25;;;20.00;50.40;;;;;;4990395;28;20031;-63
2022/04/19 10:39:32;;;;;;;6.78;2.38;;;20.00;50.70;;;;;;4981271;28;20041;-61
2022/04/19 10:42:05;;;;;;;4.40;1.80;;;20.00;50.80;;;;;;4987852;28;20104;-61
2022/04/19 10:44:49;;;;;;;8.20;2.53;;;19.80;52.40;;;;;;4990030;28;20041;-62
2022/04/19 10:47:17;;;;;;;5.45;2.15;;;19.80;50.00;;;;;;4989406;28;20069;-61
2022/04/19 10:50:05;;;;;;;5.57;1.75;;;19.90;49.10;;;;;;4985320;28;20053;-62
2022/04/19 10:52:36;;;;;;;6.63;2.42;;;19.90;50.50;;;;;;4986332;28;20371;-60
2022/04/19 10:55:08;;;;;;;6.97;2.05;;;20.00;48.70;;;;;;4986692;28;20034;-60
2022/04/19 11:00:47;;;;;;;7.22;2.50;;;19.90;48.60;;;;;;4989606;28;20037;-61
2022/04/19 11:03:18;;;;;;;4.85;1.65;;;19.80;48.30;;;;;;4987841;28;20038;-61
2022/04/19 11:05:47;;;;;;;5.05;2.00;;;19.90;48.70;;;;;;4988163;28;20044;-62
2022/04/19 11:08:31;;;;;;;4.20;1.67;;;19.90;49.80;;;;;;4988452;28;20082;-62
2022/04/19 11:11:02;;;;;;;4.78;2.13;;;20.00;49.20;;;;;;4987424;28;20041;-62
2022/04/19 11:13:31;;;;;;;4.10;1.98;;;20.00;50.10;;;;;;4986159;28;20128;-64
2022/04/19 11:16:12;;;;;;;5.60;2.50;;;20.00;50.50;;;;;;4989633;28;20034;-61
2022/04/19 11:18:37;;;;;;;5.43;2.58;;;20.00;50.40;;;;;;4989227;28;20038;-61
2022/04/19 11:21:04;;;;;;;5.80;1.65;;;20.10;50.30;;;;;;4991158;28;20035;-62
2022/04/19 11:23:50;;;;;;;6.18;1.88;;;20.00;49.20;;;;;;4987894;28;20034;-62
2022/04/19 11:26:30;;;;;;;5.97;2.10;;;20.00;48.40;;;;;;4986206;28;20498;-62
2022/04/19 11:29:08;;;;;;;;;;;19.90;49.00;;;;;;4990369;28;20313;-61
2022/04/19 11:31:34;;;;;;;7.15;2.25;;;19.90;47.90;;;;;;4986503;28;19993;-62
2022/04/19 11:34:00;;;;;;;4.05;2.13;;;19.90;48.50;;;;;;4988041;28;20034;-61
2022/04/19 11:36:26;;;;;;;6.43;1.80;;;19.90;49.10;;;;;;4987733;28;20521;-62
2022/04/19 11:38:53;;;;;;;5.30;1.73;;;19.90;49.40;;;;;;4987196;28;20034;-61
2022/04/19 11:46:51;;;;;;;4.43;1.70;;;19.90;49.30;;;;;;4980892;28;20042;-62
2022/04/19 11:49:19;;;;;;;6.40;2.67;;;19.70;50.70;;;;;;4989061;28;20039;-62
2022/04/19 11:51:54;;;;;;;5.60;2.10;;;19.80;50.80;;;;;;4991478;28;20429;-61
2022/04/19 11:54:31;;;;;;;4.60;1.85;;;19.70;50.20;;;;;;4984637;28;20031;-62
2022/04/19 11:57:05;;;;;;;5.43;2.15;;;19.70;51.10;;;;;;4992289;28;20433;-61
2022/04/19 11:59:41;;;;;;;6.45;1.60;;;19.70;50.40;;;;;;4989527;28;20066;-62
2022/04/19 12:02:17;;;;;;;4.72;1.77;;;19.70;50.70;;;;;;4987570;28;20074;-62
2022/04/19 12:04:54;;;;;;;5.75;1.70;;;19.70;50.40;;;;;;4993052;28;20099;-62
2022/04/19 12:07:21;;;;;;;5.65;1.58;;;19.60;52.30;;;;;;4991189;28;20046;-61
2022/04/19 12:09:50;;;;;;;5.05;1.83;;;19.60;51.30;;;;;;4988692;28;20145;-63
2022/04/19 12:12:16;;;;;;;5.93;1.80;;;19.70;51.80;;;;;;4989393;28;20125;-60
2022/04/19 12:14:48;;;;;;;6.65;2.20;;;19.60;52.10;;;;;;4990803;28;20136;-62
2022/04/19 12:17:19;;;;;;;5.75;1.90;;;19.60;52.10;;;;;;4990812;28;20109;-62
2022/04/19 12:19:44;;;;;;;4.28;2.10;;;19.50;52.90;;;;;;4989481;28;20031;-63
2022/04/19 12:22:13;;;;;;;5.45;1.92;;;19.50;52.40;;;;;;4989628;28;20025;-61
2022/04/19 12:24:45;;;;;;;7.28;2.00;;;19.50;52.90;;;;;;4992627;28;20452;-61
2022/04/19 12:27:10;;;;;;;4.75;1.83;;;19.40;52.70;;;;;;4987323;28;20442;-61
2022/04/19 12:29:55;;;;;;;4.07;1.63;;;19.40;52.00;;;;;;4986249;28;20125;-62
2022/04/19 12:32:21;;;;;;;5.32;1.92;;;19.40;52.00;;;;;;4992914;28;20050;-61
2022/04/19 12:34:46;;;;;;;7.72;1.92;;;19.40;53.10;;;;;;4991070;28;20040;-62
2022/04/19 12:37:16;;;;;;;5.43;2.20;;;19.50;52.50;;;;;;4986137;28;20061;-62
2022/04/19 12:40:02;;;;;;;5.67;1.50;;;19.50;52.90;;;;;;4992089;28;20379;-62
2022/04/19 12:42:28;;;;;;;6.15;2.10;;;19.50;53.00;;;;;;4991296;28;20282;-63
2022/04/19 12:45:06;;;;;;;5.90;1.70;;;19.50;52.90;;;;;;4989182;28;20418;-62
2022/04/19 12:47:32;;;;;;;4.00;1.80;;;19.60;52.90;;;;;;4987954;28;20046;-61
2022/04/19 12:50:08;;;;;;;5.78;1.63;;;19.50;52.40;;;;;;4990900;28;20030;-61
2022/04/19 12:52:33;;;;;;;3.90;1.48;;;19.50;52.40;;;;;;4988790;28;20040;-61
2022/04/19 12:55:00;;;;;;;4.13;1.42;;;19.50;52.20;;;;;;4988484;28;20437;-61
2022/04/19 12:57:26;;;;;;;3.70;1.60;;;19.60;53.30;;;;;;4990396;28;20041;-61
2022/04/19 12:59:52;;;;;;;6.32;2.00;;;19.60;53.10;;;;;;4992658;28;20811;-61
2022/04/19 13:02:18;;;;;;;4.70;1.80;;;19.60;52.70;;;;;;4993121;28;20045;-62
2022/04/19 13:04:45;;;;;;;4.25;1.60;;;19.60;53.20;;;;;;4991527;28;20046;-61
2022/04/19 13:12:39;;;;;;;4.47;1.95;;;19.60;54.30;;;;;;4989758;28;20102;-61
2022/04/19 13:15:06;;;;;;;5.32;1.77;;;19.60;53.50;;;;;;4992349;28;20501;-61
2022/04/19 13:17:34;;;;;;;4.07;1.88;;;19.60;54.20;;;;;;4995066;28;20076;-61
2022/04/19 13:20:01;;;;;;;4.75;1.75;;;19.60;54.30;;;;;;4993518;28;20030;-61
2022/04/19 13:22:27;;;;;;;2.92;1.50;;;19.50;53.70;;;;;;4989621;28;20058;-61
2022/04/19 13:24:52;;;;;;;7.03;1.80;;;19.50;53.90;;;;;;4997201;28;20169;-61
2022/04/19 13:27:18;;;;;;;5.65;1.90;;;19.50;54.60;;;;;;4995153;28;20084;-63
2022/04/19 13:29:45;;;;;;;5.43;1.67;;;19.70;53.90;;;;;;4990834;28;20129;-61
2022/04/19 13:32:12;;;;;;;6.15;2.25;;;19.70;53.60;;;;;;4994559;28;20034;-62
2022/04/19 13:34:38;;;;;;;5.88;2.58;;;19.80;53.60;;;;;;4994432;28;20030;-62